Metar Aviation Weather Data LFTW Nîmes-Arles-Camargue

27°C Temp
15°C Dewpoint
48% Humidity
Temperature
14 KM/H
9 MPH
8 KTS
30°
North North
East

Wind Speed
Clear
Conditions
Pressure 1017 (hPa) - 30.03 (in)
Visibility 6.2 (mi) - 10.0 (km)

Current Conditions
LFTW
Nîmes-Arles-Camargue
Metar :LFTW 181730Z AUTO 03008KT CAVOK 27/15 Q1017 NOSIG
Sat 18th August 19:30 pm

Nîmes-Arles-Camargue
  Metar Aviation API Data Provided by https://www.checkwx.com/ PHP scripts by weather34.com ©2018